Glenville, WV (26351)

9:46 AM EST on March 06, 2015 (GMT -0500)
W8PY @ Harmony | Change Station
CLOSE
Current Station
Personal Weather Station
Location: West Union, WV
Elevation: 852 ft
Nearby Weather Stations

Elev 852 ft 39.17 °N, 80.82 °W | Updated 13 minutes ago

Clear
Clear
19.7 °F
Feels Like 20 °F
N
0.0
Wind Variable Wind from SW
Gusts 0.0 mph

Today
High -- | Low -- °F
--% Chance of Precip.
Yesterday
High -- | Low -- °F
Precip. -- in
6:48 AM 6:21 PM
Full, 99% visible
Pressure 30.48 in
Visibility 9.0 miles
Clouds Clear
Windchill 20 °F
Dew Point 10 °F
Humidity 67%
Rainfall in
Snow Depth Not available.
UV 3 out of 12
Pollen 1.80 out of 12
Air Quality Not available.
Flu Activity Not available.
METAR KW22 061435Z AUTO 00000KT 9SM CLR M12/M13 A3048 RMK AO2

More Conditions Fewer Conditions

Pressure 30.48 in
Visibility 9.0 miles
Clouds Clear
Windchill 20 °F
Dew Point 10 °F
Humidity 67%
Rainfall in
Snow Depth Not available.
UV 3 out of 12
Pollen 1.80 out of 12
Air Quality Not available.
Flu Activity Not available.
METAR KW22 061435Z AUTO 00000KT 9SM CLR M12/M13 A3048 RMK AO2

More Conditions Fewer Conditions

10-Day Weather Forecast

Almanac

Astronomy

Mar. 06, 2015 Rise Set
Actual Time
Civil Twilight
Nautical Twilight
Astronomical Twilight
Moon
Length of Visible Light
Length of Day
Tomorrow will be .
, % of the Moon is Illuminated

Today's Extremes

State Highs State Lows

Community

WunderPhotos

Upload Photos

1,803,285 photos uploaded!

WunderBlogs® & News

Nearby

Air Quality

  Air Quality AQ Index Pollutant
Not available.

Snow Depth

Station Depth Elevation

Earthquake Activity

City Distance Mag. Time & Date
Minimum magnitude displayed is 2.5.

Coastal Water Temperatures

Place Temperature

Nearby Weather Stations